createdAt,value
2018-04-30T05:13:52.476Z,18.5
2018-04-30T05:14:42.382Z,18.5
2018-04-30T05:15:33.421Z,18.5
2018-04-30T05:16:22.900Z,18.5
2018-04-30T05:17:13.346Z,18.5
2018-04-30T05:18:03.077Z,18.5
2018-04-30T05:18:53.113Z,18.5
2018-04-30T05:19:43.552Z,18.5
2018-04-30T05:20:32.703Z,18.6
2018-04-30T05:21:22.758Z,18.5
2018-04-30T05:22:13.438Z,18.5
2018-04-30T05:23:03.174Z,18.5
2018-04-30T05:23:53.474Z,18.5
2018-04-30T05:24:43.593Z,18.5
2018-04-30T05:25:34.251Z,18.5
2018-04-30T05:26:23.496Z,18.5
2018-04-30T05:27:14.363Z,18.5
2018-04-30T05:28:03.896Z,18.5
2018-04-30T05:28:53.731Z,18.5
2018-04-30T05:29:43.509Z,18.5
2018-04-30T05:30:34.033Z,18.5
2018-04-30T05:31:24.193Z,18.5
2018-04-30T05:32:14.285Z,18.5
2018-04-30T05:33:03.684Z,18.5
2018-04-30T05:33:54.932Z,18.5
2018-04-30T05:34:44.099Z,18.5
2018-04-30T05:35:34.515Z,18.4
2018-04-30T05:36:25.068Z,18.4
2018-04-30T05:37:14.252Z,18.5
2018-04-30T05:38:04.033Z,18.5
2018-04-30T05:38:54.531Z,18.5
2018-04-30T05:39:44.808Z,18.5
2018-04-30T05:40:34.253Z,18.5
2018-04-30T05:41:24.424Z,18.5
2018-04-30T05:42:15.260Z,18.5
2018-04-30T05:43:05.014Z,18.5
2018-04-30T05:43:55.403Z,18.5
2018-04-30T05:44:44.315Z,18.5
2018-04-30T05:45:34.658Z,18.5
2018-04-30T05:46:24.449Z,18.5
2018-04-30T05:47:14.465Z,18.5
2018-04-30T05:48:05.107Z,18.5
2018-04-30T05:48:54.601Z,18.5
2018-04-30T05:49:44.757Z,18.5
2018-04-30T05:50:35.556Z,18.5
2018-04-30T05:51:24.835Z,18.5
2018-04-30T05:52:15.490Z,18.4
2018-04-30T05:53:05.784Z,18.5
2018-04-30T05:53:55.913Z,18.4
2018-04-30T05:54:45.899Z,18.5
2018-04-30T05:55:35.710Z,18.5
2018-04-30T05:56:26.056Z,18.5
2018-04-30T05:57:16.645Z,18.5
2018-04-30T05:58:05.560Z,18.5
2018-04-30T05:58:56.470Z,18.5
2018-04-30T05:59:46.807Z,18.5
2018-04-30T06:00:37.750Z,18.5
2018-04-30T06:01:26.227Z,18.5
2018-04-30T06:02:16.175Z,18.5
2018-04-30T06:03:06.639Z,18.5
2018-04-30T06:03:57.190Z,18.5
2018-04-30T06:04:45.888Z,18.5
2018-04-30T06:05:37.028Z,18.5
2018-04-30T06:06:26.567Z,18.5
2018-04-30T06:07:16.219Z,18.5
2018-04-30T06:08:07.302Z,18.5
2018-04-30T06:08:57.039Z,18.5
2018-04-30T06:09:46.505Z,18.5
2018-04-30T06:10:36.244Z,18.5
2018-04-30T06:11:27.249Z,18.5
2018-04-30T06:12:17.846Z,18.5
2018-04-30T06:13:07.623Z,18.5
2018-04-30T06:13:57.945Z,18.5
2018-04-30T06:14:47.723Z,18.5
2018-04-30T06:15:37.806Z,18.5
2018-04-30T06:16:27.257Z,18.5
2018-04-30T06:17:17.883Z,18.5
2018-04-30T06:18:07.724Z,18.5
2018-04-30T06:18:57.746Z,18.5
2018-04-30T06:19:47.871Z,18.5
2018-04-30T06:20:38.514Z,18.5
2018-04-30T06:21:27.923Z,18.5
2018-04-30T06:22:18.284Z,18.5
2018-04-30T06:23:08.081Z,18.5
2018-04-30T06:23:57.613Z,18.5
2018-04-30T06:24:48.547Z,18.5
2018-04-30T06:25:38.798Z,18.5
2018-04-30T06:26:28.890Z,18.5
2018-04-30T06:27:17.927Z,18.5
2018-04-30T06:28:08.175Z,18.5
2018-04-30T06:28:58.823Z,18.6
2018-04-30T06:29:48.290Z,18.5
2018-04-30T06:30:38.932Z,18.5
2018-04-30T06:31:27.887Z,18.5
2018-04-30T06:32:18.866Z,18.5
2018-04-30T06:33:09.120Z,18.5
2018-04-30T06:33:59.220Z,18.6
2018-04-30T06:34:48.452Z,18.5
2018-04-30T06:35:39.296Z,18.5
2018-04-30T06:36:29.156Z,18.5
2018-04-30T06:37:18.609Z,18.5
2018-04-30T06:38:09.782Z,18.5
2018-04-30T06:38:59.047Z,18.5
2018-04-30T06:39:49.347Z,18.5
2018-04-30T06:40:39.149Z,18.5
2018-04-30T06:41:29.454Z,18.5
2018-04-30T06:42:19.532Z,18.5
2018-04-30T06:43:09.614Z,18.6
2018-04-30T06:43:58.356Z,18.6
2018-04-30T06:44:50.061Z,18.5
2018-04-30T06:45:39.198Z,18.6
2018-04-30T06:46:29.612Z,18.6
2018-04-30T06:47:20.279Z,18.6
2018-04-30T06:48:10.039Z,18.6
2018-04-30T06:49:00.197Z,18.6
2018-04-30T06:49:50.776Z,18.6
2018-04-30T06:50:39.768Z,18.6
2018-04-30T06:51:30.254Z,18.6
2018-04-30T06:52:20.635Z,18.6
2018-04-30T06:53:10.384Z,18.6
2018-04-30T06:54:00.494Z,18.6
2018-04-30T06:54:50.882Z,18.6
2018-04-30T06:55:40.706Z,18.6
2018-04-30T06:56:30.380Z,18.6
2018-04-30T06:57:20.509Z,18.6
2018-04-30T06:58:10.278Z,18.6
2018-04-30T06:59:00.416Z,18.6
2018-04-30T06:59:50.394Z,18.6
2018-04-30T07:00:40.479Z,18.6
2018-04-30T07:01:31.029Z,18.6
2018-04-30T07:02:20.826Z,18.6
2018-04-30T07:03:11.738Z,18.5
2018-04-30T07:04:01.551Z,18.5
2018-04-30T07:04:51.299Z,18.5
2018-04-30T07:05:41.341Z,18.5
2018-04-30T07:06:32.069Z,18.5
2018-04-30T07:07:21.545Z,18.5
2018-04-30T07:08:11.383Z,18.6
2018-04-30T07:09:01.920Z,18.5
2018-04-30T07:09:52.119Z,18.6
2018-04-30T07:10:42.059Z,18.5
2018-04-30T07:11:31.855Z,18.5
2018-04-30T07:12:22.192Z,18.6
2018-04-30T07:13:11.162Z,18.5
2018-04-30T07:14:02.107Z,18.5
2018-04-30T07:14:51.280Z,18.6
2018-04-30T07:15:42.725Z,18.6
2018-04-30T07:16:32.307Z,18.6
2018-04-30T07:17:22.076Z,18.6
2018-04-30T07:18:12.197Z,18.6
2018-04-30T07:19:02.177Z,18.6
2018-04-30T07:19:52.311Z,18.6
2018-04-30T07:20:43.073Z,18.6
2018-04-30T07:21:32.856Z,18.6
2018-04-30T07:22:22.681Z,18.6
2018-04-30T07:23:12.807Z,18.6
2018-04-30T07:24:03.080Z,18.6
2018-04-30T07:24:52.904Z,18.6
2018-04-30T07:25:42.653Z,18.6
2018-04-30T07:26:32.438Z,18.6
2018-04-30T07:27:23.630Z,18.6
2018-04-30T07:28:12.879Z,18.6
2018-04-30T07:29:02.346Z,18.6
2018-04-30T07:29:53.985Z,18.6
2018-04-30T07:30:43.626Z,18.6
2018-04-30T07:31:33.967Z,18.6
2018-04-30T07:32:24.031Z,18.6
2018-04-30T07:33:14.449Z,18.6
2018-04-30T07:34:03.399Z,18.6
2018-04-30T07:34:53.381Z,18.6
2018-04-30T07:35:43.514Z,18.6
2018-04-30T07:36:33.009Z,18.6
2018-04-30T07:37:23.875Z,18.6
2018-04-30T07:38:13.865Z,18.6
2018-04-30T07:39:04.864Z,18.6
2018-04-30T07:39:54.373Z,18.6
2018-04-30T07:40:43.283Z,18.6
2018-04-30T07:41:34.743Z,18.6
2018-04-30T07:42:24.263Z,18.6
2018-04-30T07:43:14.063Z,18.6
2018-04-30T07:44:04.683Z,18.6
2018-04-30T07:44:53.880Z,18.6
2018-04-30T07:45:44.227Z,18.6
2018-04-30T07:46:34.847Z,18.6
2018-04-30T07:47:24.368Z,18.6
2018-04-30T07:48:14.135Z,18.6
2018-04-30T07:49:04.245Z,18.6
2018-04-30T07:49:54.550Z,18.6
2018-04-30T07:50:45.046Z,18.6
2018-04-30T07:51:34.663Z,18.6
2018-04-30T07:52:24.491Z,18.6
2018-04-30T07:53:14.825Z,18.6
2018-04-30T07:54:05.209Z,18.6
2018-04-30T07:54:54.456Z,18.6
2018-04-30T07:55:45.572Z,18.6
2018-04-30T07:56:35.683Z,18.6
2018-04-30T07:57:26.784Z,18.6
2018-04-30T07:58:16.102Z,18.6
2018-04-30T07:59:05.008Z,18.6
2018-04-30T07:59:55.679Z,18.6
2018-04-30T08:00:45.416Z,18.6
2018-04-30T08:01:36.326Z,18.6
2018-04-30T08:02:25.963Z,18.6
2018-04-30T08:03:16.625Z,18.6
2018-04-30T08:04:06.584Z,18.6
2018-04-30T08:04:56.278Z,18.6
2018-04-30T08:05:46.345Z,18.6
2018-04-30T08:06:36.767Z,18.6
2018-04-30T08:07:26.520Z,18.6
2018-04-30T08:08:16.543Z,18.6
2018-04-30T08:09:06.800Z,18.6
2018-04-30T08:09:56.146Z,18.6
2018-04-30T08:10:46.493Z,18.6
2018-04-30T08:12:26.071Z,18.6
2018-04-30T08:13:16.749Z,18.6
2018-04-30T08:14:57.788Z,18.6
2018-04-30T08:15:47.215Z,18.6
2018-04-30T08:16:37.182Z,18.6
2018-04-30T08:17:27.013Z,18.6
2018-04-30T08:18:17.074Z,18.6
2018-04-30T08:19:06.839Z,18.6
2018-04-30T08:19:57.759Z,18.6
2018-04-30T08:20:46.817Z,18.6
2018-04-30T08:24:07.522Z,18.6
2018-04-30T08:47:29.666Z,18.8
2018-04-30T08:50:00.325Z,18.8
2018-04-30T08:54:08.811Z,18.8
2018-04-30T08:54:58.380Z,18.8
2018-04-30T08:55:49.881Z,18.8
2018-04-30T08:56:39.645Z,18.8
2018-04-30T08:57:29.107Z,18.8
2018-04-30T08:58:19.987Z,18.8
2018-04-30T09:00:00.640Z,18.8
2018-04-30T09:00:50.789Z,18.8
2018-04-30T09:01:39.947Z,18.8
2018-04-30T09:02:30.270Z,18.8
2018-04-30T09:03:20.884Z,18.8
2018-04-30T09:04:11.037Z,18.8
2018-04-30T09:05:00.720Z,18.8
2018-04-30T09:05:51.378Z,18.8
2018-04-30T09:06:41.227Z,18.8
2018-04-30T09:08:21.028Z,18.8
2018-04-30T09:09:10.829Z,18.8
2018-04-30T09:10:01.395Z,18.8
2018-04-30T09:10:51.838Z,18.8
2018-04-30T09:11:41.280Z,18.8
2018-04-30T09:12:31.073Z,18.8
2018-04-30T09:13:21.686Z,18.8
2018-04-30T09:14:11.262Z,18.8
2018-04-30T09:15:02.089Z,18.8
2018-04-30T09:15:52.174Z,18.8
2018-04-30T09:16:42.266Z,18.8
2018-04-30T09:17:32.021Z,18.8
2018-04-30T09:18:22.115Z,18.8
2018-04-30T09:19:11.597Z,18.8
2018-04-30T09:20:01.361Z,18.8
2018-04-30T09:20:52.277Z,18.8
2018-04-30T09:21:42.343Z,18.8
2018-04-30T09:22:32.479Z,18.8
2018-04-30T09:23:21.637Z,18.8
2018-04-30T09:24:12.826Z,18.8
2018-04-30T09:25:02.961Z,18.8
2018-04-30T09:25:52.130Z,18.8
2018-04-30T09:26:42.425Z,18.8
2018-04-30T09:27:33.167Z,18.8
2018-04-30T09:28:23.681Z,18.8
2018-04-30T09:29:14.814Z,18.8
2018-04-30T09:30:02.715Z,18.8
2018-04-30T09:30:53.060Z,18.8
2018-04-30T09:31:43.123Z,18.8
2018-04-30T09:32:33.175Z,18.8
2018-04-30T09:33:22.422Z,18.8
2018-04-30T09:34:12.793Z,18.8
2018-04-30T09:35:03.366Z,18.8
2018-04-30T09:35:52.338Z,18.8
2018-04-30T09:36:43.818Z,18.8
2018-04-30T09:37:33.680Z,18.8
2018-04-30T09:38:22.920Z,18.8
2018-04-30T09:39:12.861Z,18.8
2018-04-30T09:40:04.046Z,18.8
2018-04-30T09:40:54.200Z,18.8
2018-04-30T09:41:43.099Z,18.8
2018-04-30T09:42:34.274Z,18.8
2018-04-30T09:43:23.225Z,18.8
2018-04-30T09:44:13.567Z,18.8
2018-04-30T09:45:04.246Z,18.8
2018-04-30T09:45:53.513Z,18.8
2018-04-30T09:46:44.042Z,18.8
2018-04-30T09:47:34.395Z,18.8
2018-04-30T09:48:24.184Z,18.8
2018-04-30T09:49:14.633Z,18.8
2018-04-30T09:50:03.734Z,18.8
2018-04-30T09:50:54.628Z,18.8
2018-04-30T09:51:43.962Z,18.8
2018-04-30T09:52:32.533Z,18.8
2018-04-30T09:53:25.125Z,18.8
2018-04-30T09:54:14.295Z,18.8
2018-04-30T09:55:04.429Z,18.8
2018-04-30T09:55:55.047Z,18.8
2018-04-30T09:56:45.116Z,18.8
2018-04-30T09:57:35.260Z,18.8
2018-04-30T09:58:25.587Z,18.8
2018-04-30T09:59:15.045Z,18.8
2018-04-30T10:00:05.200Z,18.8
2018-04-30T10:00:55.712Z,18.8
2018-04-30T10:01:45.263Z,18.8
2018-04-30T10:02:35.914Z,18.8
2018-04-30T10:03:25.418Z,18.9
2018-04-30T10:04:15.246Z,18.9
2018-04-30T10:05:06.050Z,18.8
2018-04-30T10:05:55.021Z,18.8
2018-04-30T10:06:45.949Z,18.8
2018-04-30T10:07:35.270Z,18.8
2018-04-30T10:08:26.074Z,18.8
2018-04-30T10:09:15.284Z,18.8
2018-04-30T10:10:06.212Z,18.8
2018-04-30T10:10:56.263Z,18.9
2018-04-30T10:11:45.803Z,18.8
2018-04-30T10:12:35.030Z,18.9
2018-04-30T10:13:25.909Z,18.9
2018-04-30T10:14:15.443Z,18.9
2018-04-30T10:15:06.395Z,18.9
2018-04-30T10:15:55.302Z,18.9
2018-04-30T10:16:45.926Z,18.9
2018-04-30T10:17:35.976Z,18.9
2018-04-30T10:18:26.966Z,18.8
2018-04-30T10:19:16.391Z,18.9
2018-04-30T10:20:05.466Z,18.9
2018-04-30T10:20:56.834Z,18.9
2018-04-30T10:21:47.222Z,18.9
2018-04-30T10:22:35.880Z,18.9
2018-04-30T10:23:28.278Z,18.9
2018-04-30T10:24:16.458Z,18.9
2018-04-30T10:25:05.799Z,18.9
2018-04-30T10:25:56.965Z,18.9
2018-04-30T10:26:47.524Z,18.9
2018-04-30T10:27:36.645Z,18.9
2018-04-30T10:28:26.803Z,18.9
2018-04-30T10:29:18.458Z,18.9
2018-04-30T10:30:07.334Z,18.9
2018-04-30T10:30:57.875Z,18.9
2018-04-30T10:31:49.280Z,18.9
2018-04-30T10:32:37.719Z,18.9
2018-04-30T10:33:26.983Z,18.9
2018-04-30T10:34:17.817Z,18.9
2018-04-30T10:35:07.965Z,18.9
2018-04-30T10:35:58.009Z,18.9
2018-04-30T10:36:48.078Z,18.9
2018-04-30T10:37:38.376Z,18.9
2018-04-30T10:38:28.186Z,18.9
2018-04-30T10:39:18.291Z,18.9
2018-04-30T10:40:08.566Z,18.9
2018-04-30T10:40:58.623Z,18.9
2018-04-30T10:41:48.708Z,18.9
2018-04-30T10:42:38.511Z,18.9
2018-04-30T10:43:28.263Z,18.9
2018-04-30T10:44:18.917Z,18.9
2018-04-30T10:45:08.720Z,18.9
2018-04-30T10:46:00.726Z,18.9
2018-04-30T10:46:48.314Z,18.9
2018-04-30T10:47:38.927Z,18.9
2018-04-30T10:48:29.504Z,18.9
2018-04-30T10:49:19.176Z,18.9
2018-04-30T10:50:08.016Z,18.9
2018-04-30T10:50:58.867Z,18.9
2018-04-30T10:51:49.677Z,18.9
2018-04-30T10:52:38.417Z,18.9
2018-04-30T10:53:29.363Z,18.9
2018-04-30T10:54:19.396Z,18.9
2018-04-30T10:55:09.233Z,18.9
2018-04-30T10:55:58.590Z,18.9
2018-04-30T10:56:49.398Z,18.9
2018-04-30T10:57:39.232Z,19
2018-04-30T10:58:29.394Z,19
2018-04-30T10:59:19.335Z,19
2018-04-30T11:00:09.617Z,19
2018-04-30T11:00:59.188Z,19
2018-04-30T11:01:49.019Z,19
2018-04-30T11:02:40.312Z,19
2018-04-30T11:03:29.392Z,19
2018-04-30T11:04:19.011Z,19
2018-04-30T11:05:09.808Z,19
2018-04-30T11:05:59.416Z,19
2018-04-30T11:06:49.492Z,19
2018-04-30T11:07:40.474Z,19
2018-04-30T11:08:30.098Z,19
2018-04-30T11:09:20.386Z,19
2018-04-30T11:10:10.734Z,19.1
2018-04-30T11:10:59.955Z,19
2018-04-30T11:11:49.498Z,19.1
2018-04-30T11:12:41.308Z,19.1
2018-04-30T11:13:30.395Z,19.1
2018-04-30T11:14:21.544Z,19.1
2018-04-30T11:15:11.659Z,19
2018-04-30T11:16:01.704Z,19.1
2018-04-30T11:16:51.178Z,19.1
2018-04-30T11:17:41.527Z,19.1
2018-04-30T11:18:31.323Z,19.1
2018-04-30T11:19:20.644Z,19.1
2018-04-30T11:20:11.512Z,19.1
2018-04-30T11:21:01.020Z,19.1
2018-04-30T11:21:51.382Z,19.1
2018-04-30T11:22:42.254Z,19.1
2018-04-30T11:23:30.470Z,19.1
2018-04-30T11:24:21.367Z,19.1
2018-04-30T11:25:11.962Z,19.1
2018-04-30T11:26:01.456Z,19.1
2018-04-30T11:26:51.994Z,19.1
2018-04-30T11:27:43.426Z,19.1
2018-04-30T11:28:31.908Z,19.1
2018-04-30T11:29:22.219Z,19.1
2018-04-30T11:30:11.756Z,19.1
2018-04-30T11:31:02.887Z,19.1
2018-04-30T11:31:51.640Z,19.1
2018-04-30T11:32:41.821Z,19.1
2018-04-30T11:33:32.673Z,19.1
2018-04-30T11:34:22.115Z,19.1
2018-04-30T11:35:12.648Z,19.1
2018-04-30T11:36:02.692Z,19.1
2018-04-30T11:36:52.496Z,19.1
2018-04-30T11:37:43.076Z,19.1
2018-04-30T11:38:32.836Z,19.2
2018-04-30T11:39:22.740Z,19.2
2018-04-30T11:40:13.504Z,19.2
2018-04-30T11:41:03.325Z,19.2
2018-04-30T11:41:52.851Z,19.2
2018-04-30T11:42:42.305Z,19.2
2018-04-30T11:43:33.249Z,19.2
2018-04-30T11:44:23.914Z,19.2
2018-04-30T11:45:13.451Z,19.3
2018-04-30T11:46:03.771Z,19.3
2018-04-30T11:46:53.771Z,19.3
2018-04-30T11:47:45.172Z,19.3
2018-04-30T11:48:33.011Z,19.3
2018-04-30T11:49:23.951Z,19.3
2018-04-30T11:50:13.718Z,19.3
2018-04-30T11:51:06.586Z,19.3
2018-04-30T11:51:53.349Z,19.4
2018-04-30T11:52:44.739Z,19.3
2018-04-30T11:53:33.716Z,19.4
2018-04-30T11:54:26.654Z,19.4
2018-04-30T11:55:14.421Z,19.4
2018-04-30T11:56:04.808Z,19.4
2018-04-30T11:56:53.958Z,19.4
2018-04-30T11:57:47.265Z,19.4
2018-04-30T11:58:34.993Z,19.4
2018-04-30T11:59:23.840Z,19.4
2018-04-30T12:00:14.511Z,19.4
2018-04-30T12:01:08.305Z,19.5
2018-04-30T12:01:54.631Z,19.5
2018-04-30T12:02:44.433Z,19.5
2018-04-30T12:03:34.819Z,19.5
2018-04-30T12:04:25.726Z,19.5
2018-04-30T12:05:14.912Z,19.6
2018-04-30T12:06:05.268Z,19.6
2018-04-30T12:06:54.823Z,19.6
2018-04-30T12:07:45.181Z,19.6
2018-04-30T12:08:35.220Z,19.6
2018-04-30T12:09:25.258Z,19.6
2018-04-30T12:10:16.381Z,19.6
2018-04-30T12:11:07.445Z,19.6
2018-04-30T12:11:56.330Z,19.6
2018-04-30T12:12:45.207Z,19.6
2018-04-30T12:13:37.129Z,19.6
2018-04-30T12:14:24.757Z,19.6
2018-04-30T12:15:16.625Z,19.6
2018-04-30T12:16:05.988Z,19.6
2018-04-30T12:16:58.490Z,19.6
2018-04-30T12:17:45.805Z,19.6
2018-04-30T12:18:36.687Z,19.7
2018-04-30T12:19:26.205Z,19.7
2018-04-30T12:20:18.147Z,19.7
2018-04-30T12:21:06.277Z,19.7
2018-04-30T12:21:57.713Z,19.6
2018-04-30T12:22:46.374Z,19.7
2018-04-30T12:23:39.255Z,19.7
2018-04-30T12:24:26.529Z,19.7
2018-04-30T12:25:16.782Z,19.7
2018-04-30T12:26:06.865Z,19.7
2018-04-30T12:26:59.384Z,19.7
2018-04-30T12:27:46.765Z,19.7
2018-04-30T12:28:37.034Z,19.7
2018-04-30T12:29:27.439Z,19.7
2018-04-30T12:30:17.785Z,19.7
2018-04-30T12:31:07.533Z,19.7
2018-04-30T12:31:57.269Z,19.7
2018-04-30T12:32:47.602Z,19.7
2018-04-30T12:33:42.419Z,19.7
2018-04-30T12:34:27.211Z,19.7
2018-04-30T12:35:17.857Z,19.7
2018-04-30T12:36:09.633Z,19.7
2018-04-30T12:36:58.012Z,19.7
2018-04-30T12:37:48.094Z,19.7
2018-04-30T12:38:38.025Z,19.7
2018-04-30T12:39:29.511Z,19.7
2018-04-30T12:40:17.774Z,19.6
2018-04-30T12:41:08.609Z,19.7
2018-04-30T12:41:57.838Z,19.6
2018-04-30T12:42:50.149Z,19.7
2018-04-30T12:43:38.848Z,19.6
2018-04-30T12:44:27.885Z,19.7
2018-04-30T12:45:18.719Z,19.7
2018-04-30T12:46:11.480Z,19.6
2018-04-30T12:46:58.810Z,19.7
2018-04-30T12:47:48.967Z,19.6
2018-04-30T12:48:38.974Z,19.6
2018-04-30T12:49:32.667Z,19.6
2018-04-30T12:50:18.748Z,19.6
2018-04-30T12:51:08.847Z,19.6
2018-04-30T12:51:59.220Z,19.6
2018-04-30T12:52:49.894Z,19.6
2018-04-30T12:53:39.027Z,19.6
2018-04-30T12:54:28.806Z,19.6
2018-04-30T12:55:19.202Z,19.6
2018-04-30T12:56:14.409Z,19.6
2018-04-30T12:56:59.317Z,19.6
2018-04-30T12:57:49.096Z,19.6
2018-04-30T12:58:39.507Z,19.6
2018-04-30T12:59:29.568Z,19.6
2018-04-30T13:00:19.371Z,19.6
2018-04-30T13:01:10.242Z,19.6
2018-04-30T13:02:03.002Z,19.6
2018-04-30T13:02:49.521Z,19.6
2018-04-30T13:03:39.621Z,19.6
2018-04-30T13:04:28.804Z,19.6
2018-04-30T13:05:22.976Z,19.6
2018-04-30T13:06:10.701Z,19.6
2018-04-30T13:06:59.041Z,19.6
2018-04-30T13:07:49.339Z,19.6
2018-04-30T13:08:39.061Z,19.6
2018-04-30T13:09:29.803Z,19.6
2018-04-30T13:10:19.765Z,19.6
2018-04-30T13:11:11.536Z,19.6
2018-04-30T13:11:59.899Z,19.6
2018-04-30T13:12:49.980Z,19.6
2018-04-30T13:13:40.697Z,19.6
2018-04-30T13:14:34.625Z,19.6
2018-04-30T13:15:21.671Z,19.6
2018-04-30T13:16:10.832Z,19.6
2018-04-30T13:17:00.809Z,19.6
2018-04-30T13:17:50.569Z,19.6
2018-04-30T13:18:40.688Z,19.6
2018-04-30T13:19:31.034Z,19.6
2018-04-30T13:20:20.813Z,19.6
2018-04-30T13:21:10.902Z,19.6
2018-04-30T13:22:00.705Z,19.6
2018-04-30T13:22:51.100Z,19.6
2018-04-30T13:23:41.351Z,19.6
2018-04-30T13:24:31.351Z,19.6
2018-04-30T13:25:21.491Z,19.6
2018-04-30T13:26:11.651Z,19.6
2018-04-30T13:27:00.164Z,19.6
2018-04-30T13:27:51.157Z,19.6
2018-04-30T13:28:43.222Z,19.6
2018-04-30T13:29:31.239Z,19.6
2018-04-30T13:30:21.803Z,19.6
2018-04-30T13:31:10.865Z,19.6
2018-04-30T13:32:02.245Z,19.6
2018-04-30T13:32:51.579Z,19.6
2018-04-30T13:33:41.771Z,19.6
2018-04-30T13:34:32.519Z,19.6
2018-04-30T13:35:22.294Z,19.6
2018-04-30T13:36:10.860Z,19.6
2018-04-30T13:37:01.476Z,19.6
2018-04-30T13:37:52.387Z,19.6
2018-04-30T13:38:42.298Z,19.6
2018-04-30T13:39:31.951Z,19.6
2018-04-30T13:40:22.574Z,19.6
2018-04-30T13:41:13.216Z,19.6
2018-04-30T13:42:02.994Z,19.6
2018-04-30T13:42:53.356Z,19.6
2018-04-30T13:43:43.755Z,19.6
2018-04-30T13:44:33.176Z,19.6
2018-04-30T13:45:22.999Z,19.6
2018-04-30T13:46:12.483Z,19.6
2018-04-30T13:47:03.451Z,19.6
2018-04-30T13:47:53.138Z,19.6
2018-04-30T13:48:43.826Z,19.6
2018-04-30T13:49:33.298Z,19.6
2018-04-30T13:50:23.648Z,19.6
2018-04-30T13:51:13.149Z,19.6
2018-04-30T13:52:03.818Z,19.6
2018-04-30T13:52:53.031Z,19.6
2018-04-30T13:53:43.935Z,19.6
2018-04-30T13:54:33.017Z,19.6
2018-04-30T13:55:23.477Z,19.6
2018-04-30T13:56:13.012Z,19.6
2018-04-30T13:57:04.226Z,19.6
2018-04-30T13:57:54.310Z,19.6
2018-04-30T13:58:44.393Z,19.6
2018-04-30T13:59:33.320Z,19.6
2018-04-30T14:00:24.702Z,19.6
2018-04-30T14:01:13.395Z,19.6
2018-04-30T14:02:05.041Z,19.6
2018-04-30T14:02:54.096Z,19.6
2018-04-30T14:03:44.806Z,19.6
2018-04-30T14:04:34.783Z,19.6
2018-04-30T14:05:23.691Z,19.6
2018-04-30T14:06:15.202Z,19.6
2018-04-30T14:07:04.233Z,19.6
2018-04-30T14:07:54.207Z,19.6
2018-04-30T14:08:44.563Z,19.6
2018-04-30T14:09:34.190Z,19.6
2018-04-30T14:10:23.867Z,19.6
2018-04-30T14:11:15.084Z,19.6
2018-04-30T14:12:05.369Z,19.6
2018-04-30T14:12:54.877Z,19.6
2018-04-30T14:13:45.852Z,19.6
2018-04-30T14:14:35.848Z,19.6
2018-04-30T14:15:24.796Z,19.6
2018-04-30T14:16:16.371Z,19.6
2018-04-30T14:17:05.813Z,19.6
2018-04-30T14:17:56.071Z,19.6
2018-04-30T14:18:46.140Z,19.6
2018-04-30T14:19:36.005Z,19.6
2018-04-30T14:20:25.209Z,19.6
2018-04-30T14:21:16.172Z,19.6
2018-04-30T14:22:05.900Z,19.6
2018-04-30T14:22:56.217Z,19.6
2018-04-30T14:23:46.272Z,19.6
2018-04-30T14:24:35.515Z,19.6
2018-04-30T14:25:25.034Z,19.6
2018-04-30T14:26:16.225Z,19.6
2018-04-30T14:27:05.459Z,19.6
2018-04-30T14:27:55.787Z,19.6
2018-04-30T14:28:45.544Z,19.6
2018-04-30T14:29:35.635Z,19.6
2018-04-30T14:30:25.981Z,19.6
2018-04-30T14:31:14.671Z,19.6
2018-04-30T14:32:06.951Z,19.6
2018-04-30T14:32:55.919Z,19.6
2018-04-30T14:33:45.763Z,19.6
2018-04-30T14:34:35.729Z,19.6
2018-04-30T14:35:26.956Z,19.6
2018-04-30T14:36:17.561Z,19.6
2018-04-30T14:37:07.120Z,19.6
2018-04-30T14:37:57.469Z,19.6
2018-04-30T14:38:46.656Z,19.6
2018-04-30T14:39:37.343Z,19.6
2018-04-30T14:40:26.811Z,19.6
2018-04-30T14:41:16.843Z,19.6
2018-04-30T14:42:07.516Z,19.6
2018-04-30T14:42:57.305Z,19.6
2018-04-30T14:43:47.588Z,19.6
2018-04-30T14:44:39.409Z,19.6
2018-04-30T14:45:26.905Z,19.6
2018-04-30T14:46:17.750Z,19.6
2018-04-30T14:47:08.444Z,19.6
2018-04-30T14:47:57.617Z,19.6
2018-04-30T14:48:47.740Z,19.6
2018-04-30T14:49:38.017Z,19.6
2018-04-30T14:50:27.887Z,19.6
2018-04-30T14:51:18.629Z,19.6
2018-04-30T14:52:07.683Z,19.6
2018-04-30T14:52:58.267Z,19.6
2018-04-30T14:53:48.345Z,19.6
2018-04-30T14:54:38.165Z,19.6
2018-04-30T14:55:27.638Z,19.6
2018-04-30T14:56:18.876Z,19.6
2018-04-30T14:57:08.191Z,19.6
2018-04-30T14:57:58.673Z,19.6
2018-04-30T14:58:48.464Z,19.6
2018-04-30T14:59:38.819Z,19.6
2018-04-30T15:00:28.897Z,19.6
2018-04-30T15:01:18.398Z,19.6
2018-04-30T15:02:09.334Z,19.6
2018-04-30T15:02:58.829Z,19.6
2018-04-30T15:03:49.471Z,19.6
2018-04-30T15:04:39.225Z,19.6
2018-04-30T15:05:28.694Z,19.6
2018-04-30T15:06:19.447Z,19.6
2018-04-30T15:07:08.885Z,19.6
2018-04-30T15:07:59.783Z,19.6
2018-04-30T15:08:49.549Z,19.6
2018-04-30T15:09:39.062Z,19.6
2018-04-30T15:10:30.007Z,19.6
2018-04-30T15:11:19.231Z,19.6
2018-04-30T15:12:09.512Z,19.6
2018-04-30T15:12:59.890Z,19.6
2018-04-30T15:13:49.350Z,19.6
2018-04-30T15:14:39.842Z,19.6
2018-04-30T15:15:29.626Z,19.6
2018-04-30T15:16:19.845Z,19.6
2018-04-30T15:17:09.706Z,19.6
2018-04-30T15:18:00.599Z,19.6
2018-04-30T15:18:50.094Z,19.6
2018-04-30T15:19:40.083Z,19.6
2018-04-30T15:20:29.433Z,19.6
2018-04-30T15:21:20.251Z,19.6
2018-04-30T15:22:10.038Z,19.6
2018-04-30T15:23:00.627Z,19.6
2018-04-30T15:23:51.251Z,19.6
2018-04-30T15:24:40.805Z,19.6
2018-04-30T15:25:30.045Z,19.6
2018-04-30T15:26:20.643Z,19.6
2018-04-30T15:27:10.519Z,19.6
2018-04-30T15:28:01.104Z,19.6
2018-04-30T15:28:50.550Z,19.6
2018-04-30T15:29:40.310Z,19.6
2018-04-30T15:30:31.240Z,19.6
2018-04-30T15:31:21.598Z,19.6
2018-04-30T15:32:11.377Z,19.6
2018-04-30T15:33:00.867Z,19.6
2018-04-30T15:33:51.573Z,19.6
2018-04-30T15:34:41.559Z,19.6
2018-04-30T15:35:31.378Z,19.6
2018-04-30T15:36:22.039Z,19.6
2018-04-30T15:37:11.735Z,19.6
2018-04-30T15:38:01.262Z,19.6
2018-04-30T15:38:51.921Z,19.6
2018-04-30T15:39:42.236Z,19.6
2018-04-30T15:40:32.021Z,19.6
2018-04-30T15:41:21.579Z,19.6
2018-04-30T15:42:12.366Z,19.6
2018-04-30T15:43:02.814Z,19.6
2018-04-30T15:43:51.786Z,19.6
2018-04-30T15:44:42.376Z,19.6
2018-04-30T15:45:32.125Z,19.6
2018-04-30T15:46:22.179Z,19.6
2018-04-30T15:47:12.806Z,19.6
2018-04-30T15:48:02.669Z,19.6
2018-04-30T15:48:53.155Z,19.6
2018-04-30T15:49:42.210Z,19.6
2018-04-30T15:50:32.260Z,19.6
2018-04-30T15:51:23.565Z,19.6
2018-04-30T15:52:12.686Z,19.6
2018-04-30T15:53:01.904Z,19.6
2018-04-30T15:53:51.953Z,19.6
2018-04-30T15:54:43.620Z,19.6
2018-04-30T15:55:32.360Z,19.6
2018-04-30T15:56:23.578Z,19.6
2018-04-30T15:57:12.497Z,19.6
2018-04-30T15:58:04.685Z,19.6
2018-04-30T15:58:53.506Z,19.6
2018-04-30T15:59:43.575Z,19.6
2018-04-30T16:00:33.037Z,19.6
2018-04-30T16:01:24.056Z,19.6
2018-04-30T16:02:13.819Z,19.6
2018-04-30T16:03:03.780Z,19.6
2018-04-30T16:03:53.870Z,19.6
2018-04-30T16:04:43.670Z,19.6
2018-04-30T16:05:33.120Z,19.6
2018-04-30T16:06:24.139Z,19.6
2018-04-30T16:07:14.467Z,19.6
2018-04-30T16:08:04.493Z,19.6
2018-04-30T16:08:54.013Z,19.6
2018-04-30T16:09:44.099Z,19.6
2018-04-30T16:10:33.553Z,19.6
2018-04-30T16:11:23.052Z,19.6
2018-04-30T16:12:13.961Z,19.6
2018-04-30T16:13:04.699Z,19.6
2018-04-30T16:13:54.462Z,19.6
2018-04-30T16:14:44.440Z,19.6
2018-04-30T16:15:34.196Z,19.6
2018-04-30T16:16:25.165Z,19.6
2018-04-30T16:17:14.678Z,19.6
2018-04-30T16:18:04.686Z,19.6
2018-04-30T16:18:54.432Z,19.6
2018-04-30T16:19:44.600Z,19.6
2018-04-30T16:20:35.049Z,19.6
2018-04-30T16:21:24.556Z,19.6
2018-04-30T16:22:14.718Z,19.6
2018-04-30T16:23:05.691Z,19.6
2018-04-30T16:23:55.451Z,19.6
2018-04-30T16:24:44.933Z,19.6
2018-04-30T16:25:35.526Z,19.6
2018-04-30T16:26:25.928Z,19.6
2018-04-30T16:27:14.893Z,19.6
2018-04-30T16:28:05.211Z,19.6
2018-04-30T16:28:56.072Z,19.6
2018-04-30T16:29:45.299Z,19.6
2018-04-30T16:30:35.410Z,19.6
2018-04-30T16:31:26.006Z,19.6
2018-04-30T16:32:15.230Z,19.6
2018-04-30T16:33:04.986Z,19.6
2018-04-30T16:33:56.200Z,19.6
2018-04-30T16:34:44.574Z,19.6
2018-04-30T16:35:36.669Z,19.6
2018-04-30T16:36:25.839Z,19.6
2018-04-30T16:37:16.191Z,19.6
2018-04-30T16:38:06.806Z,19.6
2018-04-30T16:38:55.775Z,19.6
2018-04-30T16:39:47.691Z,19.6
2018-04-30T16:40:37.260Z,19.6
2018-04-30T16:41:26.270Z,19.6
2018-04-30T16:42:17.436Z,19.6
2018-04-30T16:43:06.627Z,19.6
2018-04-30T16:43:56.963Z,19.6
2018-04-30T16:44:47.067Z,19.6
2018-04-30T16:45:37.093Z,19.6
2018-04-30T16:46:26.902Z,19.6
2018-04-30T16:47:18.996Z,19.6
2018-04-30T16:48:07.331Z,19.6
2018-04-30T16:48:56.814Z,19.6
2018-04-30T16:49:47.192Z,19.6
2018-04-30T16:50:38.045Z,19.6
2018-04-30T16:51:27.544Z,19.6
2018-04-30T16:52:17.639Z,19.6
2018-04-30T16:53:08.961Z,19.6
2018-04-30T16:53:58.037Z,19.6